createdAt,value
2019-04-27T00:01:19.245Z,61.67
2019-04-27T00:03:47.875Z,61.32
2019-04-27T00:06:16.509Z,62.31
2019-04-27T00:08:45.141Z,62.31
2019-04-27T00:11:13.935Z,63.06
2019-04-27T00:13:44.077Z,63.10
2019-04-27T00:16:13.514Z,62.00
2019-04-27T00:18:45.070Z,63.00
2019-04-27T00:21:13.458Z,63.50
2019-04-27T00:23:44.539Z,63.25
2019-04-27T00:26:12.990Z,63.13
2019-04-27T00:28:40.459Z,62.19
2019-04-27T00:31:07.914Z,62.31
2019-04-27T00:33:34.638Z,62.51
2019-04-27T00:36:03.312Z,62.63
2019-04-27T00:38:33.445Z,61.57
2019-04-27T00:41:02.940Z,61.92
2019-04-27T00:43:30.092Z,61.56
2019-04-27T00:45:56.751Z,62.06
2019-04-27T00:48:23.526Z,61.68
2019-04-27T00:50:52.810Z,60.87
2019-04-27T00:53:20.040Z,60.88
2019-04-27T00:55:48.609Z,60.54
2019-04-27T00:58:17.087Z,61.37
2019-04-27T01:00:44.079Z,60.67
2019-04-27T01:03:13.959Z,61.55
2019-04-27T01:05:40.769Z,62.20
2019-04-27T01:08:07.651Z,60.78
2019-04-27T01:10:34.315Z,61.43
2019-04-27T01:13:01.132Z,61.29
2019-04-27T01:15:28.323Z,61.33
2019-04-27T01:18:07.058Z,61.11
2019-04-27T01:20:23.649Z,60.12
2019-04-27T01:22:50.490Z,61.24
2019-04-27T01:25:18.879Z,60.28
2019-04-27T01:27:49.364Z,61.25
2019-04-27T01:30:18.890Z,61.82
2019-04-27T01:32:45.918Z,61.57
2019-04-27T01:35:12.587Z,62.25
2019-04-27T01:37:39.191Z,62.09
2019-04-27T01:40:07.099Z,62.42
2019-04-27T01:42:33.755Z,62.54
2019-04-27T01:45:00.476Z,62.98
2019-04-27T01:47:28.841Z,63.18
2019-04-27T01:49:55.941Z,63.49
2019-04-27T01:52:22.528Z,62.79
2019-04-27T01:54:49.615Z,63.21
2019-04-27T01:57:16.395Z,62.71
2019-04-27T01:59:43.111Z,61.83
2019-04-27T02:02:11.804Z,62.65
2019-04-27T02:04:40.727Z,63.22
2019-04-27T02:07:09.596Z,63.50
2019-04-27T02:09:36.299Z,63.81
2019-04-27T02:12:03.653Z,62.30
2019-04-27T02:14:30.436Z,62.62
2019-04-27T02:16:57.143Z,62.48
2019-04-27T02:19:23.966Z,62.91
2019-04-27T02:21:51.557Z,62.47
2019-04-27T02:24:18.744Z,61.85
2019-04-27T02:26:45.889Z,62.39
2019-04-27T02:29:14.461Z,62.66
2019-04-27T02:31:43.102Z,62.96
2019-04-27T02:34:11.752Z,63.48
2019-04-27T02:36:39.177Z,63.52
2019-04-27T02:39:09.312Z,64.25
2019-04-27T02:41:36.188Z,62.95
2019-04-27T02:44:06.552Z,63.97
2019-04-27T02:46:33.417Z,63.33
2019-04-27T02:49:06.078Z,62.72
2019-04-27T02:51:30.631Z,62.54
2019-04-27T02:54:00.201Z,63.21
2019-04-27T02:56:27.513Z,63.38
2019-04-27T02:58:54.488Z,63.33
2019-04-27T03:01:23.770Z,63.80
2019-04-27T03:03:50.632Z,63.19
2019-04-27T03:06:19.680Z,63.51
2019-04-27T03:08:49.509Z,63.28
2019-04-27T03:11:14.557Z,64.11
2019-04-27T03:13:43.143Z,64.13
2019-04-27T03:16:13.445Z,63.14
2019-04-27T03:18:42.215Z,63.28
2019-04-27T03:21:13.102Z,63.21
2019-04-27T03:23:41.164Z,63.42
2019-04-27T03:26:10.791Z,64.31
2019-04-27T03:28:40.152Z,63.15
2019-04-27T03:31:06.686Z,63.53
2019-04-27T03:33:34.101Z,64.09
2019-04-27T03:36:02.527Z,64.71
2019-04-27T03:38:30.213Z,65.07
2019-04-27T03:40:57.387Z,65.43
2019-04-27T03:43:24.371Z,65.27
2019-04-27T03:45:52.295Z,65.45
2019-04-27T03:48:20.366Z,66.00
2019-04-27T03:50:50.609Z,65.41
2019-04-27T03:53:20.517Z,65.48
2019-04-27T03:55:50.616Z,66.39
2019-04-27T03:58:21.626Z,65.34
2019-04-27T04:00:51.970Z,66.12
2019-04-27T04:03:20.255Z,65.64
2019-04-27T04:05:47.066Z,65.23
2019-04-27T04:08:14.038Z,64.61
2019-04-27T04:10:42.666Z,63.28
2019-04-27T04:13:11.179Z,63.42
2019-04-27T04:15:40.040Z,63.88
2019-04-27T04:18:06.932Z,63.93
2019-04-27T04:20:34.629Z,63.27
2019-04-27T04:23:03.391Z,64.18
2019-04-27T04:25:33.117Z,63.54
2019-04-27T04:28:00.597Z,63.81
2019-04-27T04:30:30.019Z,63.23
2019-04-27T04:32:56.217Z,63.11
2019-04-27T04:35:23.862Z,62.63
2019-04-27T04:37:52.832Z,63.33
2019-04-27T04:40:23.238Z,64.67
2019-04-27T04:42:52.030Z,64.15
2019-04-27T04:45:20.646Z,63.10
2019-04-27T04:47:49.761Z,62.96
2019-04-27T04:50:16.746Z,62.71
2019-04-27T04:52:43.473Z,61.58
2019-04-27T04:55:10.476Z,61.71
2019-04-27T04:57:37.274Z,62.79
2019-04-27T05:00:05.556Z,62.21
2019-04-27T05:02:32.274Z,61.75
2019-04-27T05:04:59.122Z,62.27
2019-04-27T05:07:27.479Z,62.28
2019-04-27T05:09:54.896Z,61.06
2019-04-27T05:12:22.657Z,60.09
2019-04-27T05:14:51.469Z,59.58
2019-04-27T05:17:19.639Z,59.15
2019-04-27T05:19:49.094Z,58.51
2019-04-27T05:22:16.251Z,58.66
2019-04-27T05:24:43.655Z,57.71
2019-04-27T05:27:10.538Z,57.15
2019-04-27T05:29:38.828Z,56.89
2019-04-27T05:32:05.657Z,56.63
2019-04-27T05:34:32.928Z,56.30
2019-04-27T05:37:01.128Z,55.98
2019-04-27T05:39:29.780Z,56.00
2019-04-27T05:41:56.467Z,55.81
2019-04-27T05:44:24.994Z,55.09
2019-04-27T05:46:53.700Z,55.15
2019-04-27T05:49:22.303Z,54.45
2019-04-27T05:51:50.144Z,54.05
2019-04-27T05:54:19.232Z,53.49
2019-04-27T05:56:46.416Z,52.94
2019-04-27T05:59:14.798Z,52.92
2019-04-27T06:01:41.730Z,52.71
2019-04-27T06:04:09.067Z,52.53
2019-04-27T06:06:36.333Z,52.85
2019-04-27T06:09:05.968Z,52.33
2019-04-27T06:11:32.627Z,52.00
2019-04-27T06:13:59.442Z,51.63
2019-04-27T06:16:26.154Z,50.97
2019-04-27T06:18:53.095Z,51.55
2019-04-27T06:21:19.773Z,51.93
2019-04-27T06:23:48.715Z,53.26
2019-04-27T06:26:15.487Z,53.12
2019-04-27T06:28:42.058Z,52.55
2019-04-27T06:31:08.890Z,52.69
2019-04-27T06:33:35.506Z,52.52
2019-04-27T06:36:02.399Z,52.83
2019-04-27T06:38:30.192Z,52.78
2019-04-27T06:40:56.773Z,53.43
2019-04-27T06:43:23.372Z,53.52
2019-04-27T06:45:49.964Z,53.51
2019-04-27T06:48:16.512Z,52.66
2019-04-27T06:50:43.124Z,52.67
2019-04-27T06:53:09.663Z,52.39
2019-04-27T06:55:36.218Z,53.16
2019-04-27T06:58:03.728Z,52.11
2019-04-27T07:00:30.415Z,51.87
2019-04-27T07:02:56.968Z,51.50
2019-04-27T07:05:24.053Z,51.90
2019-04-27T07:07:50.848Z,51.96
2019-04-27T07:10:18.610Z,52.33
2019-04-27T07:12:45.671Z,51.49
2019-04-27T07:15:15.395Z,52.09
2019-04-27T07:17:41.039Z,51.91
2019-04-27T07:20:09.194Z,51.73
2019-04-27T07:22:35.895Z,50.54
2019-04-27T07:25:05.223Z,50.48
2019-04-27T07:27:32.420Z,49.44
2019-04-27T07:30:01.554Z,49.23
2019-04-27T07:32:29.347Z,50.18
2019-04-27T07:34:55.918Z,49.85
2019-04-27T07:37:22.578Z,50.38
2019-04-27T07:39:49.399Z,48.84
2019-04-27T07:42:16.981Z,48.38
2019-04-27T07:44:47.065Z,48.04
2019-04-27T07:47:16.040Z,48.45
2019-04-27T07:49:45.008Z,48.53
2019-04-27T07:52:12.862Z,48.70
2019-04-27T07:54:41.001Z,49.22
2019-04-27T07:57:09.738Z,49.28
2019-04-27T07:59:36.639Z,51.22
2019-04-27T08:02:04.586Z,50.83
2019-04-27T08:04:31.363Z,50.91
2019-04-27T08:06:59.562Z,50.74
2019-04-27T08:09:26.508Z,51.30
2019-04-27T08:11:53.371Z,52.69
2019-04-27T08:14:19.941Z,51.21
2019-04-27T08:16:48.486Z,52.25
2019-04-27T08:19:15.403Z,51.51
2019-04-27T08:21:44.562Z,50.57
2019-04-27T08:24:11.755Z,49.89
2019-04-27T08:26:40.690Z,50.79
2019-04-27T08:29:09.313Z,51.41
2019-04-27T08:31:38.643Z,51.95
2019-04-27T08:34:08.572Z,52.97
2019-04-27T08:36:35.374Z,53.59
2019-04-27T08:39:04.968Z,53.27
2019-04-27T08:41:32.131Z,52.77
2019-04-27T08:43:58.829Z,53.31
2019-04-27T08:46:25.403Z,53.11
2019-04-27T08:48:52.163Z,53.26
2019-04-27T08:51:19.657Z,54.07
2019-04-27T08:53:46.606Z,53.70
2019-04-27T08:56:14.622Z,53.00
2019-04-27T08:58:41.253Z,52.44
2019-04-27T09:01:10.162Z,52.53
2019-04-27T09:03:36.468Z,53.16
2019-04-27T09:06:05.200Z,54.11
2019-04-27T09:08:34.835Z,55.21
2019-04-27T09:11:03.526Z,54.07
2019-04-27T09:13:32.187Z,53.62
2019-04-27T09:16:01.022Z,52.35
2019-04-27T09:18:32.369Z,51.96
2019-04-27T09:21:00.183Z,51.68
2019-04-27T09:23:28.513Z,51.80
2019-04-27T09:25:59.325Z,51.62
2019-04-27T09:28:26.025Z,53.01
2019-04-27T09:30:52.868Z,51.85
2019-04-27T09:33:22.161Z,51.30
2019-04-27T09:35:48.226Z,51.13
2019-04-27T09:38:14.860Z,50.62
2019-04-27T09:40:41.403Z,50.64
2019-04-27T09:43:07.977Z,50.54
2019-04-27T09:45:34.893Z,50.73
2019-04-27T09:48:01.702Z,50.22
2019-04-27T09:50:28.609Z,50.39
2019-04-27T09:52:55.803Z,49.52
2019-04-27T09:55:22.979Z,49.29
2019-04-27T09:57:49.651Z,49.55
2019-04-27T10:00:18.008Z,49.47
2019-04-27T10:02:46.422Z,49.52
2019-04-27T10:05:15.373Z,49.94
2019-04-27T10:07:43.246Z,49.02
2019-04-27T10:10:10.404Z,49.29
2019-04-27T10:12:37.288Z,49.27
2019-04-27T10:15:08.052Z,49.81
2019-04-27T10:17:34.683Z,49.90
2019-04-27T10:20:01.585Z,49.03
2019-04-27T10:22:40.341Z,49.10
2019-04-27T10:24:56.936Z,49.81
2019-04-27T10:27:23.564Z,50.14
2019-04-27T10:29:50.708Z,51.00
2019-04-27T10:32:17.661Z,50.73
2019-04-27T10:34:44.280Z,50.85
2019-04-27T10:37:11.507Z,50.99
2019-04-27T10:39:38.315Z,50.82
2019-04-27T10:42:06.733Z,50.45
2019-04-27T10:44:35.566Z,50.85
2019-04-27T10:47:02.749Z,51.74
2019-04-27T10:49:29.633Z,51.23
2019-04-27T10:51:56.470Z,51.50
2019-04-27T10:54:23.247Z,50.43
2019-04-27T10:56:50.381Z,51.82
2019-04-27T10:59:17.434Z,52.23
2019-04-27T11:01:45.860Z,51.78
2019-04-27T11:04:15.886Z,52.32
2019-04-27T11:06:45.109Z,52.27
2019-04-27T11:09:12.070Z,52.59
2019-04-27T11:11:39.549Z,52.24
2019-04-27T11:14:06.947Z,52.68
2019-04-27T11:16:35.665Z,52.25
2019-04-27T11:19:03.179Z,51.89
2019-04-27T11:21:30.200Z,52.88
2019-04-27T11:23:57.024Z,53.32
2019-04-27T11:26:23.928Z,53.07
2019-04-27T11:28:52.322Z,52.84
2019-04-27T11:31:20.202Z,52.58
2019-04-27T11:33:46.820Z,52.83
2019-04-27T11:36:17.051Z,53.18
2019-04-27T11:38:44.451Z,52.80
2019-04-27T11:41:11.080Z,53.77
2019-04-27T11:43:37.978Z,53.75
2019-04-27T11:46:06.169Z,53.40
2019-04-27T11:48:33.430Z,54.22
2019-04-27T11:51:00.335Z,53.98
2019-04-27T11:53:26.875Z,54.67
2019-04-27T11:55:53.899Z,55.00
2019-04-27T11:58:20.492Z,54.10
2019-04-27T12:00:47.185Z,53.96
2019-04-27T12:03:16.572Z,53.62
2019-04-27T12:05:43.499Z,53.00
2019-04-27T12:08:10.116Z,53.31
2019-04-27T12:10:36.728Z,53.71
2019-04-27T12:13:05.433Z,54.53
2019-04-27T12:15:32.366Z,54.14
2019-04-27T12:17:59.122Z,54.13
2019-04-27T12:20:26.079Z,54.19
2019-04-27T12:22:53.113Z,53.99
2019-04-27T12:25:20.116Z,54.13
2019-04-27T12:27:48.836Z,54.18
2019-04-27T12:30:18.255Z,54.45
2019-04-27T12:32:45.692Z,53.89
2019-04-27T12:35:13.663Z,53.39
2019-04-27T12:37:40.254Z,54.50
2019-04-27T12:40:07.341Z,53.92
2019-04-27T12:42:36.234Z,53.58
2019-04-27T12:45:05.708Z,53.67
2019-04-27T12:47:32.666Z,54.28
2019-04-27T12:49:59.400Z,54.05
2019-04-27T12:52:26.268Z,54.33
2019-04-27T12:54:55.009Z,55.06
2019-04-27T12:57:26.885Z,55.60
2019-04-27T12:59:56.614Z,54.84
2019-04-27T13:02:28.040Z,55.08
2019-04-27T13:04:56.652Z,55.07
2019-04-27T13:07:23.495Z,55.81
2019-04-27T13:09:50.134Z,55.28
2019-04-27T13:12:18.150Z,55.46
2019-04-27T13:14:45.722Z,56.13
2019-04-27T13:17:12.686Z,56.24
2019-04-27T13:19:39.345Z,56.40
2019-04-27T13:22:09.017Z,56.57
2019-04-27T13:24:36.790Z,55.42
2019-04-27T13:27:06.516Z,55.07
2019-04-27T13:29:35.739Z,55.36
2019-04-27T13:32:03.240Z,55.22
2019-04-27T13:34:29.918Z,56.60
2019-04-27T13:36:58.637Z,56.53
2019-04-27T13:39:25.797Z,56.10
2019-04-27T13:41:52.759Z,57.12
2019-04-27T13:44:19.511Z,57.42
2019-04-27T13:46:48.213Z,57.00
2019-04-27T13:49:18.150Z,57.57
2019-04-27T13:51:46.623Z,57.50
2019-04-27T13:54:18.878Z,57.89
2019-04-27T13:56:43.812Z,57.78
2019-04-27T13:59:12.775Z,57.27
2019-04-27T14:01:40.588Z,57.22
2019-04-27T14:04:07.238Z,57.77
2019-04-27T14:06:34.119Z,57.14
2019-04-27T14:09:03.887Z,57.04
2019-04-27T14:11:32.558Z,56.70
2019-04-27T14:13:59.180Z,56.97
2019-04-27T14:16:25.774Z,57.07
2019-04-27T14:18:52.651Z,58.19
2019-04-27T14:21:19.310Z,58.17
2019-04-27T14:23:45.925Z,58.70
2019-04-27T14:26:12.943Z,58.25
2019-04-27T14:28:39.796Z,58.67
2019-04-27T14:31:06.551Z,58.83
2019-04-27T14:33:33.319Z,58.88
2019-04-27T14:36:00.054Z,58.54
2019-04-27T14:38:26.736Z,58.62
2019-04-27T14:40:53.646Z,58.99
2019-04-27T14:43:20.378Z,59.03
2019-04-27T14:45:48.616Z,59.19
2019-04-27T14:48:15.777Z,59.80
2019-04-27T14:50:42.665Z,60.07
2019-04-27T14:53:09.236Z,60.33
2019-04-27T14:55:35.951Z,60.34
2019-04-27T14:58:02.857Z,61.62
2019-04-27T15:00:30.680Z,61.58
2019-04-27T15:02:59.147Z,61.66
2019-04-27T15:05:26.141Z,61.77
2019-04-27T15:07:54.583Z,61.43
2019-04-27T15:10:27.011Z,62.19
2019-04-27T15:12:55.452Z,62.66
2019-04-27T15:15:22.031Z,61.99
2019-04-27T15:17:49.429Z,61.50
2019-04-27T15:20:18.553Z,62.05
2019-04-27T15:22:50.790Z,61.58
2019-04-27T15:25:15.905Z,62.61
2019-04-27T15:27:45.170Z,61.89
2019-04-27T15:30:14.529Z,61.18
2019-04-27T15:32:43.210Z,61.29
2019-04-27T15:35:11.939Z,62.26
2019-04-27T15:37:40.642Z,62.51
2019-04-27T15:40:12.679Z,61.74
2019-04-27T15:42:49.064Z,61.65
2019-04-27T15:45:12.060Z,62.58
2019-04-27T15:47:42.546Z,61.76
2019-04-27T15:50:08.727Z,62.49
2019-04-27T15:52:35.434Z,61.64
2019-04-27T15:55:11.015Z,62.51
2019-04-27T15:57:33.075Z,62.87
2019-04-27T15:59:59.847Z,64.04
2019-04-27T16:02:26.535Z,62.75
2019-04-27T16:04:53.619Z,63.39
2019-04-27T16:07:25.259Z,63.74
2019-04-27T16:09:49.423Z,63.39
2019-04-27T16:12:18.024Z,62.49
2019-04-27T16:14:44.828Z,62.45
2019-04-27T16:17:11.695Z,61.59
2019-04-27T16:19:42.627Z,62.38
2019-04-27T16:22:08.029Z,63.46
2019-04-27T16:24:34.993Z,62.68
2019-04-27T16:27:01.844Z,62.78
2019-04-27T16:29:31.575Z,63.23
2019-04-27T16:31:58.349Z,62.60
2019-04-27T16:34:25.475Z,63.01
2019-04-27T16:36:52.568Z,62.40
2019-04-27T16:39:20.411Z,63.06
2019-04-27T16:41:50.027Z,62.85
2019-04-27T16:44:15.941Z,62.77
2019-04-27T16:46:43.187Z,63.18
2019-04-27T16:49:14.025Z,63.48
2019-04-27T16:51:40.278Z,63.97
2019-04-27T16:54:13.065Z,64.77
2019-04-27T16:56:37.923Z,64.48
2019-04-27T16:59:25.895Z,65.01
2019-04-27T17:01:33.822Z,65.59
2019-04-27T17:04:00.655Z,65.79
2019-04-27T17:06:29.532Z,65.26
2019-04-27T17:08:57.476Z,65.19
2019-04-27T17:11:26.170Z,64.90
2019-04-27T17:13:56.223Z,64.92
2019-04-27T17:16:28.753Z,64.38
2019-04-27T17:19:04.614Z,65.29
2019-04-27T17:21:28.843Z,64.99
2019-04-27T17:23:58.732Z,65.22
2019-04-27T17:26:24.394Z,64.93
2019-04-27T17:28:53.192Z,64.44
2019-04-27T17:31:21.961Z,65.18
2019-04-27T17:33:51.768Z,64.72
2019-04-27T17:36:19.863Z,65.03
2019-04-27T17:38:50.857Z,64.77
2019-04-27T17:41:15.709Z,65.07
2019-04-27T17:43:42.812Z,65.00
2019-04-27T17:46:11.494Z,64.59
2019-04-27T17:48:38.622Z,65.01
2019-04-27T17:51:05.681Z,64.70
2019-04-27T17:53:33.200Z,64.31
2019-04-27T17:56:05.680Z,64.62
2019-04-27T17:58:28.747Z,65.15
2019-04-27T18:00:58.011Z,65.76
2019-04-27T18:03:25.828Z,65.28
2019-04-27T18:05:52.622Z,65.08
2019-04-27T18:08:24.605Z,65.34
2019-04-27T18:10:48.034Z,65.10
2019-04-27T18:13:20.867Z,64.93
2019-04-27T18:15:45.739Z,66.28
2019-04-27T18:18:13.887Z,65.48
2019-04-27T18:20:40.646Z,65.73
2019-04-27T18:23:15.184Z,65.73
2019-04-27T18:25:43.472Z,65.64
2019-04-27T18:28:15.176Z,65.36
2019-04-27T18:30:42.185Z,64.96
2019-04-27T18:33:08.893Z,65.69
2019-04-27T18:35:35.549Z,66.15
2019-04-27T18:38:02.385Z,65.42
2019-04-27T18:40:32.027Z,65.80
2019-04-27T18:42:57.937Z,65.05
2019-04-27T18:45:24.767Z,65.35
2019-04-27T18:47:56.415Z,64.86
2019-04-27T18:50:25.161Z,64.74
2019-04-27T18:52:54.084Z,64.30
2019-04-27T18:55:21.089Z,64.06
2019-04-27T18:57:50.981Z,63.97
2019-04-27T19:00:18.938Z,64.22
2019-04-27T19:02:45.790Z,64.38
2019-04-27T19:05:12.858Z,63.85
2019-04-27T19:07:40.171Z,63.90
2019-04-27T19:10:08.953Z,63.70
2019-04-27T19:12:36.068Z,63.56
2019-04-27T19:15:04.976Z,64.24
2019-04-27T19:17:33.587Z,64.57
2019-04-27T19:20:00.482Z,64.96
2019-04-27T19:22:27.948Z,64.88
2019-04-27T19:24:55.714Z,64.22
2019-04-27T19:27:24.262Z,64.02
2019-04-27T19:29:52.774Z,63.90
2019-04-27T19:32:19.742Z,64.09
2019-04-27T19:34:47.996Z,63.81
2019-04-27T19:37:15.064Z,64.00
2019-04-27T19:39:41.676Z,64.83
2019-04-27T19:42:08.415Z,64.36
2019-04-27T19:44:36.214Z,64.25
2019-04-27T19:47:05.651Z,64.55
2019-04-27T19:49:31.946Z,64.73
2019-04-27T19:51:58.883Z,64.73
2019-04-27T19:54:28.260Z,64.32
2019-04-27T19:56:54.860Z,64.63
2019-04-27T19:59:23.413Z,64.99
2019-04-27T20:01:52.658Z,66.00
2019-04-27T20:04:19.204Z,65.77
2019-04-27T20:06:45.928Z,65.82
2019-04-27T20:09:14.795Z,65.75
2019-04-27T20:11:41.460Z,65.51
2019-04-27T20:14:08.106Z,66.10
2019-04-27T20:16:34.819Z,66.01
2019-04-27T20:19:02.520Z,65.80
2019-04-27T20:21:30.809Z,65.72
2019-04-27T20:23:57.738Z,65.88
2019-04-27T20:26:24.411Z,65.70
2019-04-27T20:28:51.474Z,65.51
2019-04-27T20:31:18.116Z,65.01
2019-04-27T20:33:47.722Z,65.18
2019-04-27T20:36:14.348Z,65.25
2019-04-27T20:38:41.869Z,64.71
2019-04-27T20:41:08.685Z,65.24
2019-04-27T20:43:35.345Z,65.50
2019-04-27T20:46:02.158Z,65.23
2019-04-27T20:48:28.743Z,65.25
2019-04-27T20:50:55.357Z,64.46
2019-04-27T20:53:23.971Z,64.73
2019-04-27T20:55:50.652Z,64.70
2019-04-27T20:58:17.262Z,64.65
2019-04-27T21:00:44.187Z,64.38
2019-04-27T21:03:12.996Z,64.04
2019-04-27T21:05:41.686Z,64.37
2019-04-27T21:08:11.756Z,64.18
2019-04-27T21:10:38.684Z,64.00
2019-04-27T21:13:05.517Z,64.21
2019-04-27T21:15:32.172Z,64.21
2019-04-27T21:17:58.766Z,64.62
2019-04-27T21:20:25.449Z,63.87
2019-04-27T21:22:53.487Z,63.48
2019-04-27T21:25:23.073Z,63.65
2019-04-27T21:27:51.364Z,63.92
2019-04-27T21:30:18.196Z,64.07
2019-04-27T21:32:44.862Z,63.65
2019-04-27T21:35:11.722Z,63.51
2019-04-27T21:37:40.683Z,63.83
2019-04-27T21:40:11.288Z,63.92
2019-04-27T21:42:37.862Z,63.44
2019-04-27T21:45:05.063Z,63.85
2019-04-27T21:47:31.710Z,63.73
2019-04-27T21:49:58.275Z,63.30
2019-04-27T21:52:26.787Z,63.49
2019-04-27T21:54:54.667Z,63.03
2019-04-27T21:57:21.246Z,62.73
2019-04-27T21:59:47.864Z,63.11
2019-04-27T22:02:15.248Z,63.65
2019-04-27T22:04:42.013Z,63.36
2019-04-27T22:07:08.820Z,63.26
2019-04-27T22:09:35.670Z,63.00
2019-04-27T22:12:02.779Z,63.13
2019-04-27T22:14:29.473Z,63.82
2019-04-27T22:16:56.305Z,64.26
2019-04-27T22:19:23.435Z,63.74
2019-04-27T22:21:51.958Z,63.35
2019-04-27T22:24:21.272Z,63.71
2019-04-27T22:26:48.322Z,63.87
2019-04-27T22:29:14.941Z,63.41
2019-04-27T22:31:41.755Z,63.42
2019-04-27T22:34:08.647Z,63.94
2019-04-27T22:36:35.250Z,63.20
2019-04-27T22:39:07.467Z,63.47
2019-04-27T22:41:37.864Z,64.11
2019-04-27T22:44:06.447Z,63.58
2019-04-27T22:46:35.119Z,64.04
2019-04-27T22:49:01.963Z,63.40
2019-04-27T22:51:28.611Z,63.81
2019-04-27T22:53:55.300Z,63.92
2019-04-27T22:56:22.488Z,63.81
2019-04-27T22:58:58.618Z,64.15
2019-04-27T23:01:23.262Z,64.24
2019-04-27T23:03:51.747Z,64.01
2019-04-27T23:06:18.557Z,63.65
2019-04-27T23:08:45.172Z,63.74
2019-04-27T23:11:11.912Z,63.94
2019-04-27T23:13:38.904Z,64.41
2019-04-27T23:16:07.651Z,64.70
2019-04-27T23:18:34.311Z,64.48
2019-04-27T23:21:01.533Z,64.17
2019-04-27T23:23:30.896Z,64.20
2019-04-27T23:25:57.521Z,64.11
2019-04-27T23:28:24.227Z,64.38
2019-04-27T23:30:52.811Z,65.14
2019-04-27T23:33:21.083Z,64.53
2019-04-27T23:35:47.924Z,65.11
2019-04-27T23:38:17.775Z,64.56
2019-04-27T23:40:43.194Z,65.34
2019-04-27T23:43:11.473Z,65.63
2019-04-27T23:45:38.664Z,65.71
2019-04-27T23:48:05.397Z,65.67
2019-04-27T23:50:34.040Z,65.66
2019-04-27T23:53:02.646Z,65.52
2019-04-27T23:55:31.144Z,64.86
2019-04-27T23:57:57.766Z,64.48
